Main page
METAR-TAF:

METAR-TAF

Airports :

Oil platform

K13-a, Netherlands

latitude: 53-13-04N, longitude: 3-13-13E, elevation: 31 m

Current weather observation

The report was made 16 minutes ago, at 04:25 UTC
Wind 4 kt from the West
Temperature 17°C
Humidity 94%
Pressure 1014 hPa

METAR: EHJR 220425Z AUTO 26004KT //// // ///////// 17/16 Q1014 RE// W16/H3

Time: 06:41 (04:41 UTC)


TAF: missing

Weather observations and forecasts of more than 4000 airports (METAR and TAF reports).

The available stations are represented by yellow and red dots on the map.

Hover mouse over dot to see the name of the station.

Then click to see weather observations and forecasts.

To change the map : click on the green buttons with a black cross to zoom in, on the green button with a dash to zoom out, or on the green arrows for adjacent maps.


METAR-TAF: